Time;durP1;ratioP1;P1;durP2;ratioP2;P2;SDS_P1;SDS_P2;PMS_P1;PMS_P2;Temp;Humidity;BMP_temperature;BMP_pressure;BME280_temperature;BME280_humidity;BME280_pressure;Samples;Min_cycle;Max_cycle;Signal;HPM_P1;HPM_P2
2023/12/04 04:38:16;;;;;;;79.13;38.88;;;;;;;-5.83;87.21;100262.16;4970194;28;20089;-92
2023/12/04 09:02:33;;;;;;;68.75;32.38;;;;;;;-4.63;98.58;100184.88;4969482;28;20542;-92
2023/12/04 09:55:52;;;;;;;77.32;40.63;;;;;;;-3.89;100.00;100137.28;4973615;28;20045;-91
2023/12/04 12:18:49;;;;;;;60.38;30.23;;;;;;;-2.89;96.65;99928.31;4970336;28;20053;-90
2023/12/04 12:42:13;;;;;;;61.85;32.20;;;;;;;-2.87;96.88;99918.13;4854560;29;20111;-90
2023/12/04 12:46:06;;;;;;;60.78;32.13;;;;;;;-2.91;96.56;99917.25;4817286;29;20049;-90
2023/12/04 18:39:15;;;;;;;120.20;56.80;;;;;;;-3.65;100.00;99632.03;4970298;28;20081;-94
2023/12/04 18:42:37;;;;;;;128.85;63.50;;;;;;;-3.68;100.00;99629.44;4960116;28;20030;-92
2023/12/04 18:45:24;;;;;;;128.45;69.88;;;;;;;-4.30;100.00;99527.03;4914838;29;20036;-89
2023/12/04 18:48:18;;;;;;;180.38;95.57;;;;;;;-3.67;100.00;99618.41;4849884;29;20033;-89
2023/12/04 18:51:31;;;;;;;303.40;142.68;;;;;;;-3.70;100.00;99606.53;4875132;29;20101;-92
2023/12/04 18:55:17;;;;;;;322.20;156.73;;;;;;;-3.73;100.00;99593.75;4785835;30;20071;-94
2023/12/04 19:11:33;;;;;;;96.10;53.00;;;;;;;-3.60;100.00;99587.94;4772290;29;20062;-86
2023/12/04 19:14:09;;;;;;;105.13;55.53;;;;;;;-3.60;100.00;99582.00;4737321;30;20461;-89
2023/12/04 19:16:34;;;;;;;210.20;116.15;;;;;;;-3.53;100.00;99591.41;4753629;30;20048;-89
2023/12/04 19:19:00;;;;;;;144.18;84.30;;;;;;;-3.57;100.00;99579.50;4744709;30;20055;-90
2023/12/04 19:21:26;;;;;;;124.88;73.68;;;;;;;-3.68;100.00;99558.16;4750381;30;20052;-87
2023/12/04 19:23:51;;;;;;;107.65;55.15;;;;;;;-3.88;100.00;99530.84;4750856;30;20059;-86
2023/12/04 19:26:17;;;;;;;97.03;50.50;;;;;;;-3.55;100.00;99576.09;4751054;30;20546;-87
2023/12/04 19:28:44;;;;;;;102.38;54.53;;;;;;;-3.59;100.00;99568.44;4763544;30;20483;-86
2023/12/04 19:31:13;;;;;;;109.60;55.20;;;;;;;-3.54;100.00;99577.84;4774394;30;20518;-87
2023/12/04 19:33:38;;;;;;;199.95;113.85;;;;;;;-3.44;100.00;99577.91;4768742;30;20048;-89
2023/12/04 19:36:05;;;;;;;174.27;99.55;;;;;;;-3.56;100.00;99561.69;4794333;29;20108;-88
2023/12/04 19:38:32;;;;;;;252.32;142.15;;;;;;;-3.66;100.00;99541.25;4825252;29;20064;-86
2023/12/04 19:40:57;;;;;;;198.65;115.22;;;;;;;-3.70;100.00;99537.81;4841279;29;20050;-86
2023/12/04 19:43:22;;;;;;;117.75;62.50;;;;;;;-3.46;100.00;99577.88;4841233;29;20060;-90
2023/12/04 19:45:48;;;;;;;114.32;60.22;;;;;;;-3.49;100.00;99577.88;4825835;29;20041;-90
2023/12/04 19:48:13;;;;;;;215.32;118.50;;;;;;;-3.56;100.00;99555.75;4864398;29;20045;-90
2023/12/04 19:50:39;;;;;;;138.55;73.18;;;;;;;-3.52;100.00;99563.41;4862065;29;20075;-89
2023/12/04 19:53:05;;;;;;;141.43;71.00;;;;;;;-3.54;100.00;99561.69;4877878;29;20041;-90
2023/12/04 19:55:30;;;;;;;97.13;47.85;;;;;;;-3.49;100.00;99566.84;4863321;29;20610;-90
2023/12/04 19:57:56;;;;;;;130.65;59.72;;;;;;;-3.80;100.00;99530.91;4864707;29;20502;-89
2023/12/04 20:00:21;;;;;;;113.10;56.20;;;;;;;-3.79;100.00;99517.38;4859852;29;20050;-89
2023/12/04 20:02:48;;;;;;;182.50;86.53;;;;;;;-3.55;100.00;99555.75;4845135;29;20064;-89
2023/12/04 20:05:14;;;;;;;208.40;92.57;;;;;;;-3.57;100.00;99564.22;4878145;29;20041;-89
2023/12/04 20:07:41;;;;;;;271.02;121.22;;;;;;;-3.55;100.00;99567.63;4877807;29;20482;-90
2023/12/04 20:10:09;;;;;;;307.85;137.30;;;;;;;-3.52;100.00;99563.41;4883866;29;20044;-90
2023/12/04 20:12:38;;;;;;;181.93;85.43;;;;;;;-3.60;100.00;99562.50;4877992;29;20100;-89
2023/12/04 20:15:07;;;;;;;159.23;81.43;;;;;;;-3.59;100.00;99553.16;4914918;29;20040;-90
2023/12/04 20:17:33;;;;;;;270.65;139.85;;;;;;;-3.56;100.00;99548.94;4900782;29;20040;-90
2023/12/04 20:19:58;;;;;;;114.57;58.38;;;;;;;-3.52;100.00;99549.84;4915332;29;20090;-89
2023/12/04 20:22:24;;;;;;;142.35;80.30;;;;;;;-3.58;100.00;99553.19;4915178;29;20543;-90
2023/12/04 20:24:50;;;;;;;108.07;54.88;;;;;;;-3.58;100.00;99550.66;4917287;29;20063;-89
2023/12/04 20:27:15;;;;;;;91.72;49.65;;;;;;;-3.74;100.00;99527.59;4915271;29;20111;-89
2023/12/04 20:29:42;;;;;;;118.22;57.40;;;;;;;-3.54;100.00;99554.03;4915086;29;20079;-90
2023/12/04 20:32:08;;;;;;;88.82;44.78;;;;;;;-3.58;100.00;99539.59;4962196;28;20047;-89
2023/12/04 20:34:33;;;;;;;94.53;47.22;;;;;;;-3.57;100.00;99548.94;4957472;28;20035;-90
2023/12/04 20:37:01;;;;;;;83.28;43.72;;;;;;;-3.49;100.00;99556.66;4957169;28;20455;-89
2023/12/04 20:39:27;;;;;;;90.00;45.10;;;;;;;-3.45;100.00;99549.06;4974183;28;20063;-89
2023/12/04 20:41:52;;;;;;;87.85;44.78;;;;;;;-3.88;100.00;99479.09;4957271;28;20089;-89
2023/12/04 20:44:18;;;;;;;79.63;43.78;;;;;;;-3.48;100.00;99546.47;4957514;28;20377;-89
2023/12/04 20:46:44;;;;;;;84.32;44.00;;;;;;;-3.67;100.00;99517.44;4957175;28;20042;-89
2023/12/04 20:49:09;;;;;;;84.35;42.45;;;;;;;-3.55;100.00;99537.06;4956858;28;20050;-89
2023/12/04 20:51:36;;;;;;;81.78;44.40;;;;;;;-3.96;100.00;99475.63;4957012;28;20081;-89
2023/12/04 20:54:04;;;;;;;118.70;64.40;;;;;;;-3.57;100.00;99546.41;4956632;28;20030;-89
2023/12/04 20:56:30;;;;;;;97.20;50.00;;;;;;;-3.62;100.00;99530.25;4911464;29;20096;-89
2023/12/04 20:58:55;;;;;;;155.85;83.72;;;;;;;-3.57;100.00;99526.03;4914168;29;20105;-89
2023/12/04 21:01:22;;;;;;;181.88;101.85;;;;;;;-3.59;100.00;99510.72;4914105;29;20040;-90
2023/12/04 21:03:47;;;;;;;90.95;45.17;;;;;;;-3.51;100.00;99533.72;4913983;29;20043;-89
2023/12/04 21:06:13;;;;;;;103.82;50.70;;;;;;;-3.55;100.00;99525.19;4898414;29;20048;-89
2023/12/04 21:08:39;;;;;;;107.72;54.92;;;;;;;-3.52;100.00;99537.94;4914191;29;20087;-89
2023/12/04 21:11:05;;;;;;;101.15;49.97;;;;;;;-3.70;100.00;99502.19;4914005;29;20104;-89
2023/12/04 21:13:33;;;;;;;100.47;54.97;;;;;;;-3.58;100.00;99524.31;4898258;29;20036;-89
2023/12/04 21:16:04;;;;;;;91.32;44.33;;;;;;;-3.63;100.00;99516.63;4913901;29;20044;-89
2023/12/04 21:18:29;;;;;;;92.47;53.50;;;;;;;-3.66;100.00;99500.50;4914687;29;20136;-89
2023/12/04 21:20:57;;;;;;;95.55;45.47;;;;;;;-3.52;100.00;99509.94;4914467;29;20508;-89
2023/12/04 21:23:25;;;;;;;95.88;49.38;;;;;;;-3.59;100.00;99510.72;4914029;29;20187;-89
2023/12/04 21:25:51;;;;;;;105.10;54.83;;;;;;;-3.53;100.00;99523.53;4913654;29;20108;-88
2023/12/04 21:28:16;;;;;;;109.75;51.65;;;;;;;-3.61;100.00;99514.13;4914143;29;20040;-89
2023/12/04 21:30:42;;;;;;;94.70;49.58;;;;;;;-3.58;100.00;99509.91;4898518;29;20039;-89
2023/12/04 21:33:08;;;;;;;110.43;52.03;;;;;;;-3.63;100.00;99498.81;4908957;28;20045;-89
2023/12/04 21:35:35;;;;;;;113.00;53.97;;;;;;;-3.58;100.00;99517.56;4956817;28;20027;-89
2023/12/04 21:38:03;;;;;;;140.55;61.90;;;;;;;-3.50;100.00;99512.50;4956535;28;20047;-89
2023/12/04 21:40:35;;;;;;;123.43;55.85;;;;;;;-3.52;100.00;99511.66;4979846;28;20042;-89
2023/12/04 21:43:36;;;;;;;106.72;51.08;;;;;;;-3.53;100.00;99510.78;4962749;28;20034;-89
2023/12/04 21:46:02;;;;;;;85.47;44.92;;;;;;;-3.85;100.00;99457.09;4888515;29;20041;-89
2023/12/04 21:48:52;;;;;;;90.43;46.58;;;;;;;-3.54;100.00;99508.22;4902368;29;20137;-89
2023/12/04 21:51:17;;;;;;;85.57;46.10;;;;;;;-3.61;100.00;99498.84;4899612;29;20103;-89
2023/12/04 21:57:08;;;;;;;97.70;50.78;;;;;;;-3.83;100.00;99450.34;4866916;29;20112;-89
2023/12/04 22:00:13;;;;;;;97.13;48.25;;;;;;;-3.53;100.00;99497.22;4863939;29;20492;-89
2023/12/04 22:06:09;;;;;;;105.90;58.92;;;;;;;-3.64;100.00;99489.50;4824746;29;20053;-90
2023/12/04 22:09:12;;;;;;;92.32;47.20;;;;;;;-3.60;100.00;99490.38;4830512;29;20057;-89
2023/12/04 22:12:28;;;;;;;85.22;44.25;;;;;;;-3.65;100.00;99487.78;4850211;29;20499;-88
2023/12/04 22:15:43;;;;;;;86.05;45.03;;;;;;;-3.65;100.00;99487.78;4864726;29;20566;-89
2023/12/04 22:18:52;;;;;;;100.60;50.10;;;;;;;-3.60;100.00;99487.81;4864118;29;20037;-89
2023/12/04 22:21:49;;;;;;;96.80;52.67;;;;;;;-3.62;100.00;99487.81;4841567;29;20046;-89
2023/12/04 22:27:02;;;;;;;86.00;43.00;;;;;;;-3.63;100.00;99480.16;4879899;29;20100;-89
2023/12/04 22:29:28;;;;;;;87.63;44.38;;;;;;;-3.64;100.00;99476.75;4860495;29;20041;-89
2023/12/04 22:31:53;;;;;;;82.30;43.80;;;;;;;-3.64;100.00;99479.31;4860553;29;20041;-89
2023/12/04 22:34:19;;;;;;;86.47;41.80;;;;;;;-3.63;100.00;99469.97;4860937;29;20482;-89
2023/12/04 22:36:44;;;;;;;85.25;44.85;;;;;;;-3.66;100.00;99452.16;4860492;29;20444;-89
2023/12/04 22:39:10;;;;;;;83.93;43.65;;;;;;;-3.60;100.00;99457.28;4860310;29;20593;-89
2023/12/04 22:41:36;;;;;;;85.55;43.45;;;;;;;-3.70;100.00;99448.72;4860686;29;20101;-89
2023/12/04 22:44:01;;;;;;;83.97;44.50;;;;;;;-3.77;100.00;99414.75;4920677;29;20047;-89
2023/12/04 22:46:27;;;;;;;85.63;42.53;;;;;;;-3.44;100.00;99460.78;4935569;29;20402;-88
2023/12/04 22:48:52;;;;;;;83.70;42.13;;;;;;;-3.47;100.00;99456.50;4935769;29;20035;-88
2023/12/04 22:51:19;;;;;;;82.63;42.65;;;;;;;-3.51;100.00;99455.63;4937577;28;20031;-89
2023/12/04 22:53:45;;;;;;;114.03;61.25;;;;;;;-3.55;100.00;99445.44;4956165;28;20027;-89
2023/12/04 22:56:10;;;;;;;92.63;47.70;;;;;;;-3.57;100.00;99454.75;4958760;28;20508;-89
2023/12/04 22:58:37;;;;;;;146.85;76.57;;;;;;;-3.53;100.00;99448.84;4976351;28;20444;-89
2023/12/04 23:01:03;;;;;;;163.77;89.43;;;;;;;-3.51;100.00;99453.09;4959648;28;20030;-89
2023/12/04 23:03:28;;;;;;;260.63;130.35;;;;;;;-3.52;100.00;99456.50;4960281;28;20034;-89
2023/12/04 23:05:54;;;;;;;179.40;88.70;;;;;;;-3.52;100.00;99456.50;4959529;28;20100;-89
2023/12/04 23:08:19;;;;;;;94.97;47.60;;;;;;;-3.57;100.00;99442.03;4960767;28;20112;-89
2023/12/04 23:10:44;;;;;;;152.57;81.20;;;;;;;-3.60;100.00;99450.50;4960795;28;20046;-89
2023/12/04 23:13:10;;;;;;;227.98;122.95;;;;;;;-3.57;100.00;99439.50;4960943;28;20472;-89
2023/12/04 23:15:36;;;;;;;105.10;57.15;;;;;;;-3.59;100.00;99436.06;4971763;28;20097;-89
2023/12/04 23:18:01;;;;;;;134.20;74.65;;;;;;;-3.59;100.00;99441.16;4977593;28;20401;-90
2023/12/04 23:20:26;;;;;;;116.15;60.58;;;;;;;-3.62;100.00;99433.53;4977390;28;20042;-89
2023/12/04 23:22:52;;;;;;;163.77;91.15;;;;;;;-3.69;100.00;99412.25;4976351;28;20038;-89
2023/12/04 23:25:17;;;;;;;122.80;68.03;;;;;;;-3.57;100.00;99429.31;4975118;28;20031;-89
2023/12/04 23:27:43;;;;;;;192.60;100.70;;;;;;;-3.62;100.00;99416.56;4972456;28;20102;-89
2023/12/04 23:30:09;;;;;;;115.65;61.15;;;;;;;-3.57;100.00;99419.97;4972132;28;20031;-89
2023/12/04 23:32:35;;;;;;;150.35;80.95;;;;;;;-3.60;100.00;99419.94;4970340;28;20031;-89
2023/12/04 23:35:00;;;;;;;171.63;95.72;;;;;;;-3.60;100.00;99414.84;4961217;28;20038;-89
2023/12/04 23:37:26;;;;;;;143.15;77.10;;;;;;;-3.64;100.00;99407.19;4959017;28;20066;-89
2023/12/04 23:39:51;;;;;;;216.18;110.18;;;;;;;-3.64;100.00;99400.41;4958913;28;20421;-89
2023/12/04 23:42:17;;;;;;;132.40;69.13;;;;;;;-3.70;100.00;99397.84;4959139;28;20038;-89
2023/12/04 23:44:42;;;;;;;117.50;59.17;;;;;;;-3.66;100.00;99394.47;4959048;28;20500;-89
2023/12/04 23:47:08;;;;;;;89.82;46.38;;;;;;;-3.70;100.00;99386.81;4959012;28;20440;-89
2023/12/04 23:49:33;;;;;;;104.40;56.28;;;;;;;-3.71;100.00;99392.72;4959169;28;20029;-89
2023/12/04 23:51:59;;;;;;;109.45;60.45;;;;;;;-3.74;100.00;99388.47;4959169;28;20387;-89
2023/12/04 23:54:24;;;;;;;94.70;51.13;;;;;;;-3.74;100.00;99377.44;4959224;28;20369;-89
2023/12/04 23:56:49;;;;;;;114.78;59.80;;;;;;;-3.65;100.00;99390.22;4958163;28;20270;-89
2023/12/04 23:59:15;;;;;;;98.75;50.22;;;;;;;-3.65;100.00;99390.22;4958238;28;20455;-89
